Time;durP1;ratioP1;P1;durP2;ratioP2;P2;SDS_P1;SDS_P2;PMS_P1;PMS_P2;Temp;Humidity;BMP_temperature;BMP_pressure;BME280_temperature;BME280_humidity;BME280_pressure;Samples;Min_cycle;Max_cycle;Signal;HPM_P1;HPM_P2
2021/12/05 00:22:26;;;;;;;8.37;2.47;;;4.90;99.90;;;;;;5042662;28;20205;-88
2021/12/05 00:25:22;;;;;;;6.27;2.33;;;4.90;99.90;;;;;;5044323;28;20633;-88
2021/12/05 00:28:00;;;;;;;8.77;2.13;;;4.90;99.90;;;;;;5041927;28;20233;-87
2021/12/05 00:41:43;;;;;;;10.00;2.33;;;5.00;99.90;;;;;;5041976;28;20182;-89
2021/12/05 01:02:35;;;;;;;7.50;2.30;;;4.80;99.90;;;;;;5047849;28;20228;-83
2021/12/05 01:15:48;;;;;;;7.23;2.57;;;4.90;99.90;;;;;;5059263;28;20169;-88
2021/12/05 01:18:19;;;;;;;6.43;2.60;;;5.00;99.90;;;;;;5060930;28;20184;-83
2021/12/05 01:20:56;;;;;;;4.77;2.43;;;5.00;99.90;;;;;;5061009;28;20142;-82
2021/12/05 01:28:50;;;;;;;5.40;1.87;;;5.00;99.90;;;;;;5051767;28;20197;-88
2021/12/05 01:42:25;;;;;;;6.50;2.60;;;5.10;99.90;;;;;;5060025;28;20211;-86
2021/12/05 01:47:37;;;;;;;7.80;2.37;;;5.10;99.90;;;;;;5059460;28;20229;-82
2021/12/05 01:58:39;;;;;;;6.80;2.77;;;5.40;99.90;;;;;;5037895;28;20184;-86
2021/12/05 02:01:46;;;;;;;5.77;2.73;;;5.50;99.90;;;;;;5042192;28;20190;-86
2021/12/05 02:37:19;;;;;;;4.80;1.50;;;5.40;99.90;;;;;;5035769;28;20173;-79
2021/12/05 02:42:26;;;;;;;5.57;1.63;;;5.20;99.90;;;;;;5038135;28;20201;-88
2021/12/05 02:44:52;;;;;;;7.07;1.70;;;5.20;99.90;;;;;;5037043;28;20211;-87
2021/12/05 02:47:22;;;;;;;4.07;1.50;;;5.20;99.90;;;;;;5037190;28;20173;-87
2021/12/05 02:49:49;;;;;;;4.53;1.90;;;5.30;99.90;;;;;;5034324;28;20166;-81
2021/12/05 02:52:25;;;;;;;6.97;2.57;;;5.20;99.90;;;;;;5036229;28;20181;-86
2021/12/05 02:54:56;;;;;;;3.60;1.57;;;5.30;99.90;;;;;;5036691;28;20173;-85
2021/12/05 02:58:14;;;;;;;4.33;1.43;;;5.40;99.90;;;;;;5037253;28;20170;-83
2021/12/05 03:00:31;;;;;;;2.67;1.40;;;5.30;99.90;;;;;;5034049;28;20265;-82
2021/12/05 03:02:57;;;;;;;2.67;1.27;;;5.30;99.90;;;;;;5034761;28;20215;-87
2021/12/05 03:05:24;;;;;;;4.23;1.30;;;5.40;99.90;;;;;;5037773;28;20182;-88
2021/12/05 03:08:00;;;;;;;4.67;1.20;;;5.30;99.90;;;;;;5044647;28;20170;-88
2021/12/05 03:10:29;;;;;;;2.17;1.20;;;5.20;99.90;;;;;;5039728;28;20146;-88
2021/12/05 03:12:56;;;;;;;3.50;1.23;;;5.20;99.90;;;;;;5038326;28;20177;-89
2021/12/05 03:15:22;;;;;;;3.07;1.20;;;5.20;99.90;;;;;;5037919;28;20522;-88
2021/12/05 03:17:48;;;;;;;6.17;1.40;;;5.30;99.90;;;;;;5039180;28;20241;-88
2021/12/05 03:20:16;;;;;;;4.77;1.47;;;5.30;99.90;;;;;;5044733;28;20174;-86
2021/12/05 03:22:43;;;;;;;3.93;1.50;;;5.30;99.90;;;;;;5042192;28;20265;-87
2021/12/05 03:25:11;;;;;;;6.10;2.23;;;5.30;99.90;;;;;;5054832;28;20221;-86
2021/12/05 03:27:41;;;;;;;3.70;1.50;;;5.20;99.90;;;;;;5050891;28;20173;-88
2021/12/05 03:30:09;;;;;;;6.80;1.60;;;5.20;99.90;;;;;;5050490;28;20178;-87
2021/12/05 03:32:35;;;;;;;4.27;1.63;;;5.20;99.90;;;;;;5051902;28;20168;-87
2021/12/05 03:35:01;;;;;;;3.20;1.70;;;5.20;99.90;;;;;;5051373;28;20193;-88
2021/12/05 03:37:26;;;;;;;3.00;1.63;;;5.10;99.90;;;;;;5054288;28;20249;-86
2021/12/05 03:39:52;;;;;;;6.57;1.97;;;5.10;99.90;;;;;;5056996;28;20212;-88
2021/12/05 03:42:18;;;;;;;4.33;2.30;;;5.00;99.90;;;;;;5055724;28;20259;-89
2021/12/05 03:44:44;;;;;;;4.30;1.67;;;5.10;99.90;;;;;;5048548;28;20266;-88
2021/12/05 03:47:10;;;;;;;6.70;1.87;;;5.10;99.90;;;;;;5047746;28;20177;-88
2021/12/05 03:49:36;;;;;;;4.73;2.13;;;5.10;99.90;;;;;;5046105;28;20200;-88
2021/12/05 03:52:11;;;;;;;4.53;2.03;;;4.90;99.90;;;;;;5049860;28;20166;-87
2021/12/05 03:54:37;;;;;;;4.83;2.43;;;4.90;99.90;;;;;;5046472;28;20181;-87
2021/12/05 03:57:06;;;;;;;4.27;2.50;;;4.90;99.90;;;;;;5045761;28;20649;-87
2021/12/05 03:59:32;;;;;;;3.57;2.87;;;4.90;99.90;;;;;;5036668;28;20228;-89
2021/12/05 04:02:03;;;;;;;4.70;2.77;;;5.10;99.90;;;;;;5045263;28;20282;-88
2021/12/05 04:04:30;;;;;;;4.47;2.73;;;4.90;99.90;;;;;;5038759;28;20329;-88
2021/12/05 04:06:56;;;;;;;6.13;3.00;;;5.00;99.90;;;;;;5037404;28;20174;-89
2021/12/05 04:09:22;;;;;;;4.97;2.90;;;4.90;99.90;;;;;;5038497;28;20215;-88
2021/12/05 04:11:57;;;;;;;4.80;2.83;;;4.90;99.90;;;;;;5038739;28;20177;-84
2021/12/05 04:14:27;;;;;;;4.60;2.80;;;5.00;99.90;;;;;;5038214;28;20166;-89
2021/12/05 04:16:55;;;;;;;4.60;2.70;;;4.90;99.90;;;;;;5038244;28;20177;-88
2021/12/05 04:19:20;;;;;;;4.47;2.70;;;4.90;99.90;;;;;;5047635;28;20642;-87
2021/12/05 04:21:46;;;;;;;5.57;3.27;;;4.90;99.90;;;;;;5039567;28;20228;-87
2021/12/05 04:24:12;;;;;;;4.33;3.00;;;4.90;99.90;;;;;;5055901;28;20169;-85
2021/12/05 04:26:41;;;;;;;5.87;2.67;;;4.90;99.90;;;;;;5056855;28;20158;-83
2021/12/05 04:29:08;;;;;;;5.70;3.07;;;4.90;99.90;;;;;;5057394;28;20180;-80
2021/12/05 04:31:36;;;;;;;4.83;3.23;;;4.90;99.90;;;;;;5058026;28;20209;-83
2021/12/05 04:34:02;;;;;;;5.90;3.13;;;4.90;99.90;;;;;;5056537;28;20193;-86
2021/12/05 04:37:18;;;;;;;5.53;3.80;;;4.90;99.90;;;;;;5054479;28;20193;-86
2021/12/05 04:40:19;;;;;;;5.07;3.53;;;4.90;99.90;;;;;;5052268;28;20162;-86
2021/12/05 04:43:12;;;;;;;5.20;3.40;;;4.90;99.90;;;;;;5050535;28;20201;-88
2021/12/05 04:45:50;;;;;;;4.63;3.40;;;4.90;99.90;;;;;;5049192;28;20162;-86
2021/12/05 04:48:16;;;;;;;7.10;3.80;;;4.90;99.90;;;;;;5059229;28;20149;-87
2021/12/05 04:50:45;;;;;;;6.03;4.17;;;5.00;99.90;;;;;;5060314;28;20161;-86
2021/12/05 04:53:12;;;;;;;6.47;4.30;;;5.10;99.90;;;;;;5060640;28;20178;-80
2021/12/05 04:55:38;;;;;;;6.23;4.10;;;5.00;99.90;;;;;;5060801;28;20165;-87
2021/12/05 04:58:06;;;;;;;5.77;4.07;;;5.10;99.90;;;;;;5061202;28;20256;-83
2021/12/05 05:00:43;;;;;;;6.33;4.20;;;5.00;99.90;;;;;;5059324;28;20162;-87
2021/12/05 05:06:34;;;;;;;5.10;4.33;;;4.90;99.90;;;;;;5049337;28;20661;-87
2021/12/05 05:08:59;;;;;;;4.93;4.37;;;4.90;99.90;;;;;;5041794;28;20268;-86
2021/12/05 05:11:26;;;;;;;5.53;4.07;;;4.90;99.90;;;;;;5041155;28;20189;-87
2021/12/05 05:13:53;;;;;;;7.43;4.23;;;5.20;99.90;;;;;;5038655;28;20204;-83
2021/12/05 05:16:22;;;;;;;5.13;4.00;;;5.00;99.90;;;;;;5040106;28;20177;-88
2021/12/05 05:18:56;;;;;;;9.00;5.13;;;5.20;99.90;;;;;;5038396;28;20630;-86
2021/12/05 05:50:16;;;;;;;5.90;3.70;;;5.20;99.90;;;;;;5042736;28;20174;-88
2021/12/05 05:52:42;;;;;;;4.70;3.50;;;5.10;99.90;;;;;;5042333;28;20202;-88
2021/12/05 05:55:10;;;;;;;6.83;3.53;;;5.20;99.90;;;;;;5044184;28;20185;-91
2021/12/05 06:00:17;;;;;;;4.40;3.00;;;5.10;99.90;;;;;;5051667;28;20245;-86
2021/12/05 06:05:32;;;;;;;4.93;3.00;;;5.10;99.90;;;;;;5058963;28;20161;-88
2021/12/05 06:07:59;;;;;;;4.73;2.97;;;5.10;99.90;;;;;;5047129;28;20178;-89
2021/12/05 06:10:30;;;;;;;5.20;3.00;;;5.10;99.90;;;;;;5043893;28;20162;-88
2021/12/05 06:12:57;;;;;;;5.63;3.10;;;5.10;99.90;;;;;;5047251;28;20257;-78
2021/12/05 06:15:25;;;;;;;6.20;3.50;;;5.10;99.90;;;;;;5051451;28;20169;-80
2021/12/05 06:17:55;;;;;;;4.83;3.30;;;5.20;99.90;;;;;;5053277;28;20178;-82
2021/12/05 06:20:25;;;;;;;4.97;3.23;;;5.20;99.90;;;;;;5051776;28;20181;-86
2021/12/05 06:22:53;;;;;;;6.27;3.50;;;5.20;99.90;;;;;;5035305;28;20220;-85
2021/12/05 06:25:24;;;;;;;5.43;3.40;;;5.20;99.90;;;;;;5047595;28;20178;-87
2021/12/05 06:27:52;;;;;;;5.37;3.37;;;5.20;99.90;;;;;;5046431;28;20166;-87
2021/12/05 06:30:31;;;;;;;5.57;3.77;;;5.10;99.90;;;;;;5048061;28;20209;-85
2021/12/05 06:38:41;;;;;;;8.03;3.80;;;5.20;99.90;;;;;;5043477;28;20226;-82
2021/12/05 06:46:23;;;;;;;6.23;4.07;;;5.20;99.90;;;;;;5051603;28;20193;-88
2021/12/05 06:48:50;;;;;;;5.60;4.43;;;5.20;99.90;;;;;;5044401;28;20534;-79
2021/12/05 06:51:25;;;;;;;4.67;4.20;;;5.20;99.90;;;;;;5049175;28;20184;-87
2021/12/05 06:53:55;;;;;;;4.83;3.90;;;5.20;99.90;;;;;;5037042;28;20185;-88
2021/12/05 06:56:22;;;;;;;5.93;4.30;;;5.30;99.90;;;;;;5053938;28;20168;-84
2021/12/05 06:58:49;;;;;;;7.20;4.43;;;5.20;99.90;;;;;;5052582;28;20177;-86
2021/12/05 07:01:15;;;;;;;7.43;4.47;;;5.10;99.90;;;;;;5049512;28;20162;-81
2021/12/05 07:03:45;;;;;;;5.90;5.03;;;5.20;99.90;;;;;;5048429;28;20320;-83
2021/12/05 07:06:31;;;;;;;8.93;4.90;;;5.30;99.90;;;;;;5041869;28;20177;-87
2021/12/05 07:09:04;;;;;;;6.20;5.30;;;5.10;99.90;;;;;;5058542;28;20181;-82
2021/12/05 07:11:48;;;;;;;8.07;4.47;;;5.30;99.90;;;;;;5054774;28;20177;-83
2021/12/05 07:22:32;;;;;;;7.40;4.40;;;5.20;99.90;;;;;;5046642;28;20221;-87
2021/12/05 07:25:10;;;;;;;7.23;4.20;;;5.20;99.90;;;;;;5047807;28;20241;-89
2021/12/05 07:44:08;;;;;;;10.10;5.97;;;5.20;99.90;;;;;;5058259;28;20229;-81
2021/12/05 07:46:37;;;;;;;7.13;5.10;;;5.10;99.90;;;;;;5056066;28;20189;-88
2021/12/05 07:49:07;;;;;;;5.83;5.00;;;5.00;99.90;;;;;;5055588;28;20180;-90
2021/12/05 07:52:01;;;;;;;8.67;6.03;;;4.90;99.90;;;;;;5047509;28;20153;-89
2021/12/05 07:54:36;;;;;;;7.80;5.20;;;5.00;99.90;;;;;;5045895;28;20193;-86
2021/12/05 07:57:16;;;;;;;8.47;5.27;;;4.90;99.90;;;;;;5044274;28;20221;-86
2021/12/05 08:16:15;;;;;;;6.77;5.63;;;4.90;99.90;;;;;;5078597;28;20185;-87
2021/12/05 08:18:46;;;;;;;7.93;6.20;;;4.90;99.90;;;;;;5072904;28;20172;-85
2021/12/05 08:21:32;;;;;;;6.23;5.00;;;4.90;99.90;;;;;;5074444;28;20215;-87
2021/12/05 08:24:05;;;;;;;8.63;5.30;;;4.90;99.90;;;;;;5052249;28;20181;-89
2021/12/05 08:26:33;;;;;;;6.33;4.80;;;4.80;99.90;;;;;;5034156;28;20181;-86
2021/12/05 08:29:12;;;;;;;6.33;5.17;;;4.80;99.90;;;;;;5048499;28;20252;-87
2021/12/05 09:25:56;;;;;;;9.87;6.73;;;5.30;99.90;;;;;;5093585;28;20166;-88
2021/12/05 09:38:34;;;;;;;8.23;6.37;;;5.40;99.90;;;;;;5075279;28;20181;-83
2021/12/05 10:35:46;;;;;;;5.73;5.10;;;6.00;99.90;;;;;;5069393;28;20239;-87
2021/12/05 10:38:19;;;;;;;6.93;5.00;;;5.90;99.90;;;;;;5059911;28;20162;-90
2021/12/05 10:41:19;;;;;;;6.73;5.40;;;5.70;99.90;;;;;;5069921;28;20170;-89
2021/12/05 10:43:58;;;;;;;6.60;5.67;;;5.90;99.90;;;;;;5054817;28;20196;-85
2021/12/05 10:46:29;;;;;;;7.50;5.87;;;6.00;99.90;;;;;;5054189;28;20215;-83
2021/12/05 10:49:12;;;;;;;8.33;5.17;;;6.10;99.90;;;;;;5053354;28;20205;-89
2021/12/05 10:51:57;;;;;;;7.77;6.03;;;6.10;99.90;;;;;;5052760;28;20158;-87
2021/12/05 10:54:27;;;;;;;8.93;5.60;;;6.20;99.90;;;;;;5069790;28;20166;-87
2021/12/05 10:57:00;;;;;;;6.47;5.60;;;6.40;99.90;;;;;;5056204;28;20150;-91
2021/12/05 10:59:36;;;;;;;7.40;5.53;;;6.30;99.90;;;;;;5056042;28;20169;-79
2021/12/05 11:02:17;;;;;;;8.63;5.87;;;6.50;99.90;;;;;;5054172;28;20204;-86
2021/12/05 11:04:46;;;;;;;7.43;5.43;;;6.40;99.90;;;;;;5055834;28;20166;-88
2021/12/05 11:07:18;;;;;;;5.90;5.10;;;6.70;99.90;;;;;;5056104;28;20165;-81
2021/12/05 11:09:54;;;;;;;6.57;5.13;;;6.70;99.90;;;;;;5057925;28;20142;-80
2021/12/05 11:12:35;;;;;;;6.97;5.67;;;6.60;99.90;;;;;;5057436;28;20318;-79
2021/12/05 11:15:17;;;;;;;6.90;5.57;;;6.70;99.90;;;;;;5057553;28;20158;-84
2021/12/05 11:17:49;;;;;;;8.93;6.10;;;6.80;99.90;;;;;;5054639;28;20142;-88
2021/12/05 11:20:30;;;;;;;7.07;5.40;;;6.80;99.90;;;;;;5055994;28;20169;-90
2021/12/05 11:22:57;;;;;;;7.27;6.00;;;7.10;99.90;;;;;;5066479;28;20201;-84
2021/12/05 11:25:27;;;;;;;7.40;5.93;;;7.10;99.00;;;;;;5077734;28;20159;-81
2021/12/05 11:28:04;;;;;;;7.27;6.20;;;7.30;98.60;;;;;;5077966;28;20152;-80
2021/12/05 11:30:37;;;;;;;7.87;6.03;;;7.40;97.90;;;;;;5077108;28;20168;-87
2021/12/05 11:33:18;;;;;;;6.57;5.53;;;7.20;98.60;;;;;;5078179;28;20195;-78
2021/12/05 11:35:58;;;;;;;8.00;6.40;;;7.20;99.10;;;;;;5077101;28;20168;-84
2021/12/05 11:38:47;;;;;;;6.37;5.77;;;7.20;97.10;;;;;;5060212;28;20149;-87
2021/12/05 11:41:22;;;;;;;7.60;5.90;;;7.10;97.70;;;;;;5076862;28;20161;-83
2021/12/05 11:43:52;;;;;;;6.63;6.03;;;7.10;98.60;;;;;;5073948;28;20170;-87
2021/12/05 11:46:55;;;;;;;7.97;6.37;;;7.30;97.60;;;;;;5075289;28;20671;-85
2021/12/05 11:49:24;;;;;;;6.83;5.80;;;7.20;98.10;;;;;;5080227;28;20173;-91
2021/12/05 11:52:02;;;;;;;7.87;5.97;;;7.20;98.80;;;;;;5079879;28;20145;-88
2021/12/05 11:54:51;;;;;;;6.50;5.90;;;7.30;96.90;;;;;;5080540;28;20165;-90
2021/12/05 11:57:38;;;;;;;7.23;6.20;;;7.20;95.60;;;;;;5081968;28;20164;-83
2021/12/05 12:00:14;;;;;;;7.00;6.13;;;7.20;95.50;;;;;;5057695;28;20185;-86
2021/12/05 12:03:05;;;;;;;10.00;6.90;;;7.20;96.20;;;;;;5077112;28;20213;-89
2021/12/05 12:05:37;;;;;;;7.27;6.10;;;7.10;97.50;;;;;;5075465;28;20169;-89
2021/12/05 12:08:12;;;;;;;6.37;5.70;;;7.20;98.20;;;;;;5074719;28;20157;-83
2021/12/05 12:10:47;;;;;;;6.70;6.00;;;7.40;97.40;;;;;;5079750;28;20211;-83
2021/12/05 12:13:20;;;;;;;6.83;6.13;;;7.50;95.30;;;;;;5080560;28;20176;-82
2021/12/05 12:15:58;;;;;;;8.13;6.33;;;7.40;95.90;;;;;;5079846;28;20180;-83
2021/12/05 12:18:33;;;;;;;7.60;6.07;;;7.40;96.90;;;;;;5079890;28;20168;-85
2021/12/05 12:21:19;;;;;;;8.20;5.97;;;7.40;97.50;;;;;;5076135;28;20203;-89
2021/12/05 12:23:51;;;;;;;6.20;5.60;;;7.40;97.70;;;;;;5075598;28;20264;-88
2021/12/05 12:26:40;;;;;;;6.07;5.03;;;7.50;98.10;;;;;;5077299;28;20176;-81
2021/12/05 12:29:46;;;;;;;6.67;4.27;;;7.50;97.60;;;;;;5092966;28;20188;-92
2021/12/05 12:32:38;;;;;;;5.73;5.00;;;7.60;96.50;;;;;;5079055;28;20177;-86
2021/12/05 12:35:20;;;;;;;5.57;4.33;;;7.90;93.00;;;;;;5077925;28;20146;-87
2021/12/05 12:38:39;;;;;;;6.10;5.37;;;8.00;91.70;;;;;;5092300;28;20173;-87
2021/12/05 12:41:24;;;;;;;7.20;5.27;;;8.00;90.90;;;;;;5046410;28;20185;-83
2021/12/05 12:44:13;;;;;;;5.93;5.30;;;8.00;87.80;;;;;;5097001;28;20158;-87
2021/12/05 12:46:54;;;;;;;5.77;4.27;;;7.80;84.30;;;;;;5081122;28;20165;-81
2021/12/05 12:49:22;;;;;;;5.63;4.43;;;7.80;83.90;;;;;;5081228;28;20161;-83
2021/12/05 12:52:09;;;;;;;5.13;4.00;;;7.70;84.30;;;;;;5079920;28;20157;-87
2021/12/05 12:54:55;;;;;;;5.00;3.40;;;7.70;82.70;;;;;;5080409;28;20188;-88
2021/12/05 12:57:53;;;;;;;3.50;2.83;;;7.70;83.80;;;;;;5092652;28;20153;-87
2021/12/05 13:00:29;;;;;;;5.67;4.30;;;7.60;83.70;;;;;;5078081;28;20157;-89
2021/12/05 13:10:08;;;;;;;6.07;4.33;;;7.70;87.50;;;;;;5080505;28;20168;-80
2021/12/05 13:13:03;;;;;;;3.03;2.57;;;7.50;90.00;;;;;;5079384;28;20594;-85
2021/12/05 13:15:40;;;;;;;3.10;2.77;;;7.50;86.20;;;;;;5079285;28;20340;-81
2021/12/05 13:18:54;;;;;;;3.47;2.20;;;7.60;81.20;;;;;;5079635;28;20169;-87
2021/12/05 13:21:36;;;;;;;2.90;2.23;;;7.60;78.10;;;;;;5079694;28;20191;-84
2021/12/05 13:24:42;;;;;;;3.77;1.93;;;7.90;68.50;;;;;;5079311;28;20224;-82
2021/12/05 13:27:32;;;;;;;3.33;1.93;;;7.60;69.50;;;;;;5078082;28;20230;-81
2021/12/05 13:30:43;;;;;;;2.40;1.80;;;7.80;56.70;;;;;;5076032;28;20189;-83
2021/12/05 13:33:43;;;;;;;4.37;2.93;;;7.80;54.70;;;;;;5075839;28;20180;-89
2021/12/05 13:36:35;;;;;;;3.43;2.60;;;7.80;56.90;;;;;;5075185;28;20184;-82
2021/12/05 13:39:32;;;;;;;3.90;2.90;;;7.80;60.00;;;;;;5075587;28;20180;-84
2021/12/05 13:42:22;;;;;;;8.10;5.37;;;8.00;57.70;;;;;;5075561;28;20200;-88
2021/12/05 13:45:15;;;;;;;7.00;4.20;;;8.00;58.80;;;;;;5071651;28;20244;-84
2021/12/05 13:47:52;;;;;;;6.87;4.40;;;7.90;55.20;;;;;;5071618;28;20165;-80
2021/12/05 13:50:56;;;;;;;7.13;5.33;;;7.90;55.40;;;;;;5073125;28;20190;-90
2021/12/05 13:53:25;;;;;;;5.10;4.57;;;7.90;58.30;;;;;;5075308;28;20180;-88
2021/12/05 13:56:25;;;;;;;6.73;4.73;;;7.90;65.10;;;;;;5075288;28;20165;-88
2021/12/05 13:59:00;;;;;;;4.63;3.73;;;8.00;70.00;;;;;;5078139;28;20160;-88
2021/12/05 14:01:42;;;;;;;7.57;4.40;;;7.90;72.50;;;;;;5091623;28;20165;-81
2021/12/05 14:04:18;;;;;;;4.17;3.77;;;7.80;75.40;;;;;;5072628;28;20177;-83
2021/12/05 14:07:07;;;;;;;4.87;3.77;;;7.90;70.00;;;;;;5075202;28;20188;-81
2021/12/05 14:09:49;;;;;;;4.93;3.50;;;8.00;68.30;;;;;;5055599;28;20176;-85
2021/12/05 14:12:38;;;;;;;5.33;3.93;;;8.00;65.90;;;;;;5055469;28;20175;-89
2021/12/05 14:15:07;;;;;;;3.77;2.50;;;8.00;63.80;;;;;;5085196;28;20167;-87
2021/12/05 14:17:42;;;;;;;4.33;3.27;;;7.90;61.70;;;;;;5078250;28;20200;-86
2021/12/05 14:20:20;;;;;;;3.93;3.53;;;7.90;62.00;;;;;;5076838;28;20168;-82
2021/12/05 14:23:07;;;;;;;6.77;5.17;;;8.00;61.40;;;;;;5074285;28;20212;-90
2021/12/05 14:26:12;;;;;;;7.03;5.33;;;8.10;67.20;;;;;;5074915;28;20172;-89
2021/12/05 14:32:32;;;;;;;7.03;6.33;;;8.00;74.90;;;;;;5070932;28;20962;-88
2021/12/05 14:35:28;;;;;;;4.97;3.63;;;8.00;78.40;;;;;;5090788;28;20197;-89
2021/12/05 14:38:15;;;;;;;5.50;3.80;;;8.10;71.30;;;;;;5069721;28;20185;-89
2021/12/05 14:40:43;;;;;;;6.00;4.20;;;8.10;64.70;;;;;;5070320;28;20205;-90
2021/12/05 14:43:38;;;;;;;7.23;3.93;;;8.10;65.30;;;;;;5052959;28;20165;-91
2021/12/05 14:46:08;;;;;;;5.17;3.67;;;8.20;61.30;;;;;;5066683;28;20158;-84
2021/12/05 14:48:37;;;;;;;4.07;3.53;;;8.20;59.00;;;;;;5064382;28;20166;-93
2021/12/05 14:51:12;;;;;;;3.47;2.90;;;8.10;60.30;;;;;;5051496;28;20201;-92
2021/12/05 14:53:44;;;;;;;5.60;5.00;;;8.00;62.70;;;;;;5064199;28;20174;-83
2021/12/05 14:56:35;;;;;;;6.37;5.33;;;8.20;68.90;;;;;;5066534;28;20717;-89
2021/12/05 14:59:11;;;;;;;7.90;6.23;;;8.10;74.60;;;;;;5038040;28;20204;-88
2021/12/05 15:01:49;;;;;;;7.50;5.97;;;8.00;78.50;;;;;;5051876;28;20196;-89
2021/12/05 15:04:42;;;;;;;9.77;6.83;;;7.90;82.90;;;;;;5037531;28;20166;-85
2021/12/05 15:07:30;;;;;;;7.60;6.80;;;7.70;86.20;;;;;;5055047;28;20169;-82
2021/12/05 15:10:49;;;;;;;8.27;6.77;;;7.80;90.00;;;;;;5054395;28;20252;-81
2021/12/05 15:13:21;;;;;;;7.00;6.13;;;7.90;89.30;;;;;;5055068;28;20212;-81
2021/12/05 15:16:02;;;;;;;9.03;7.07;;;7.90;88.70;;;;;;5072851;28;20160;-84
2021/12/05 15:18:34;;;;;;;8.33;6.90;;;8.00;88.50;;;;;;5095258;28;20171;-80
2021/12/05 15:21:10;;;;;;;8.77;7.17;;;8.00;88.20;;;;;;5095320;28;20171;-82
2021/12/05 15:23:56;;;;;;;7.53;6.77;;;8.10;86.90;;;;;;5093785;28;20141;-88
2021/12/05 15:26:33;;;;;;;8.53;6.53;;;7.90;88.40;;;;;;5093407;28;20255;-88
2021/12/05 15:29:48;;;;;;;7.70;6.90;;;7.80;90.60;;;;;;5061408;28;20199;-90
2021/12/05 15:32:28;;;;;;;9.30;7.03;;;8.00;90.40;;;;;;5072383;28;20193;-89
2021/12/05 15:34:57;;;;;;;9.67;7.70;;;7.90;90.50;;;;;;5073783;28;20173;-86
2021/12/05 15:37:51;;;;;;;10.73;8.73;;;7.90;90.90;;;;;;5073521;28;20209;-82
2021/12/05 15:40:43;;;;;;;11.90;9.70;;;7.90;88.00;;;;;;5075011;28;20149;-83
2021/12/05 15:43:33;;;;;;;10.63;9.53;;;7.90;88.90;;;;;;5061681;28;20162;-83
2021/12/05 15:46:07;;;;;;;11.97;9.30;;;7.90;89.70;;;;;;5060053;28;20217;-80
2021/12/05 15:48:45;;;;;;;11.57;9.40;;;8.00;89.50;;;;;;5061137;28;20205;-80
2021/12/05 15:51:27;;;;;;;16.80;12.93;;;8.00;89.00;;;;;;5056477;28;20217;-89
2021/12/05 15:54:32;;;;;;;13.40;11.20;;;8.00;88.80;;;;;;5053349;28;20184;-91
2021/12/05 15:57:13;;;;;;;13.30;10.57;;;7.90;90.10;;;;;;5051093;28;20185;-90
2021/12/05 16:00:08;;;;;;;14.60;10.73;;;7.80;90.90;;;;;;5052638;28;20173;-91
2021/12/05 16:02:40;;;;;;;10.77;9.63;;;7.90;90.70;;;;;;5054139;28;20215;-90
2021/12/05 16:05:20;;;;;;;10.07;8.17;;;7.80;91.10;;;;;;5052643;28;20178;-87
2021/12/05 16:07:49;;;;;;;11.60;9.80;;;7.70;92.10;;;;;;5037789;28;20161;-87
2021/12/05 16:10:24;;;;;;;11.00;9.63;;;7.50;93.20;;;;;;5054728;28;20202;-86
2021/12/05 16:12:56;;;;;;;12.40;9.33;;;7.50;94.30;;;;;;5056660;28;20184;-89
2021/12/05 16:15:30;;;;;;;11.47;9.10;;;7.40;94.60;;;;;;5055122;28;20177;-88
2021/12/05 16:18:00;;;;;;;10.63;9.07;;;7.60;94.00;;;;;;5052479;28;20173;-91
2021/12/05 16:20:49;;;;;;;12.17;9.47;;;7.60;94.00;;;;;;5050072;28;20166;-89
2021/12/05 16:23:18;;;;;;;11.60;10.23;;;7.80;93.90;;;;;;5047024;28;20169;-88
2021/12/05 16:25:55;;;;;;;10.33;9.10;;;7.80;93.20;;;;;;5049588;28;20158;-91
2021/12/05 16:28:39;;;;;;;10.37;8.70;;;7.90;93.00;;;;;;5053779;28;20217;-87
2021/12/05 16:31:16;;;;;;;11.17;9.47;;;7.90;93.00;;;;;;5053963;28;20209;-91
2021/12/05 16:33:56;;;;;;;11.43;10.23;;;7.90;93.30;;;;;;5046789;28;20277;-92
2021/12/05 16:36:47;;;;;;;12.77;8.43;;;8.00;92.40;;;;;;5035304;28;20185;-91
2021/12/05 16:39:28;;;;;;;8.97;6.70;;;8.10;89.70;;;;;;5050139;28;20178;-89
2021/12/05 16:42:12;;;;;;;9.40;8.00;;;8.20;85.90;;;;;;5053378;28;20245;-90
2021/12/05 16:44:59;;;;;;;10.07;8.07;;;8.10;86.50;;;;;;5038347;28;20173;-87
2021/12/05 16:47:27;;;;;;;11.83;9.13;;;8.10;87.40;;;;;;5054927;28;20215;-86
2021/12/05 16:49:55;;;;;;;10.40;8.77;;;8.00;88.00;;;;;;5052269;28;20569;-90
2021/12/05 16:52:25;;;;;;;10.40;9.17;;;7.90;90.10;;;;;;5053664;28;20161;-91
2021/12/05 16:54:58;;;;;;;13.50;9.20;;;7.80;91.00;;;;;;5053805;28;20158;-83
2021/12/05 16:57:31;;;;;;;9.97;8.80;;;7.80;91.50;;;;;;5052640;28;20205;-89
2021/12/05 17:00:32;;;;;;;13.77;10.27;;;7.90;91.50;;;;;;5052329;28;20174;-91
2021/12/05 17:03:05;;;;;;;12.13;10.50;;;7.80;92.00;;;;;;5057947;28;20245;-88
2021/12/05 17:05:47;;;;;;;11.37;10.17;;;7.90;91.70;;;;;;5057794;28;20188;-90
2021/12/05 17:08:45;;;;;;;12.13;10.87;;;8.00;91.50;;;;;;5057958;28;20158;-86
2021/12/05 17:11:18;;;;;;;14.17;11.50;;;8.00;91.20;;;;;;5059274;28;20201;-89
2021/12/05 17:14:03;;;;;;;14.47;11.27;;;8.10;90.00;;;;;;5055745;28;20189;-89
2021/12/05 17:16:31;;;;;;;18.20;13.90;;;8.20;88.50;;;;;;5059192;28;20189;-86
2021/12/05 17:19:13;;;;;;;16.20;12.40;;;8.20;87.10;;;;;;5058526;28;20212;-84
2021/12/05 17:21:59;;;;;;;21.63;17.57;;;8.10;86.80;;;;;;5057032;28;20197;-90
2021/12/05 17:24:33;;;;;;;18.83;13.53;;;8.20;85.80;;;;;;5047218;28;20182;-91
2021/12/05 17:27:04;;;;;;;16.43;13.10;;;8.20;86.00;;;;;;5034614;28;20189;-80
2021/12/05 17:29:39;;;;;;;18.77;14.40;;;8.10;87.90;;;;;;5049930;28;20193;-90
2021/12/05 17:32:09;;;;;;;14.93;13.00;;;8.00;89.30;;;;;;5050334;28;20221;-91
2021/12/05 17:34:46;;;;;;;15.77;12.93;;;7.90;90.20;;;;;;5051006;28;20245;-89
2021/12/05 17:37:22;;;;;;;12.90;11.00;;;7.90;90.80;;;;;;5056638;28;20185;-83
2021/12/05 17:39:59;;;;;;;13.30;11.87;;;7.80;91.30;;;;;;5055756;28;20197;-86
2021/12/05 17:42:30;;;;;;;17.67;13.53;;;7.90;91.10;;;;;;5058303;28;20169;-84
2021/12/05 17:45:03;;;;;;;20.30;14.00;;;7.50;92.10;;;;;;5042401;28;20162;-85
2021/12/05 17:47:41;;;;;;;20.03;14.43;;;7.20;94.90;;;;;;5057740;28;20253;-81
2021/12/05 17:50:44;;;;;;;19.57;13.87;;;7.10;97.00;;;;;;5057601;28;20206;-80
2021/12/05 17:53:11;;;;;;;18.53;14.73;;;6.90;97.90;;;;;;5055758;28;20183;-81
2021/12/05 17:55:45;;;;;;;20.27;14.83;;;6.80;99.10;;;;;;5057114;28;20181;-85
2021/12/05 17:58:37;;;;;;;18.50;15.83;;;6.70;99.90;;;;;;5057841;28;20161;-86
2021/12/05 18:04:09;;;;;;;19.70;14.60;;;6.60;99.90;;;;;;5057936;28;20176;-84
2021/12/05 18:06:55;;;;;;;19.73;15.40;;;6.60;99.90;;;;;;5058245;28;20213;-79
2021/12/05 18:09:21;;;;;;;17.77;14.23;;;6.60;99.90;;;;;;5058651;28;20150;-84
2021/12/05 18:11:54;;;;;;;16.80;13.87;;;6.60;99.90;;;;;;5040600;28;20737;-87
2021/12/05 18:14:21;;;;;;;20.47;16.17;;;6.70;99.90;;;;;;5057557;28;20229;-81
2021/12/05 18:16:51;;;;;;;25.37;18.50;;;6.80;99.90;;;;;;5058669;28;20197;-84
2021/12/05 18:19:20;;;;;;;19.40;15.33;;;6.90;99.90;;;;;;5057988;28;20170;-85
2021/12/05 18:21:50;;;;;;;23.87;17.67;;;6.90;99.90;;;;;;5057135;28;20192;-88
2021/12/05 18:24:19;;;;;;;26.37;18.83;;;6.80;99.90;;;;;;5057048;28;20149;-88
2021/12/05 18:26:49;;;;;;;23.03;17.50;;;6.70;99.90;;;;;;5057680;28;20174;-80
2021/12/05 18:29:22;;;;;;;25.10;18.27;;;6.60;99.90;;;;;;5040907;28;20204;-83
2021/12/05 18:31:48;;;;;;;22.10;18.50;;;6.60;99.90;;;;;;5057072;28;20233;-82
2021/12/05 18:37:39;;;;;;;23.20;17.37;;;6.50;99.90;;;;;;5051304;28;20153;-89
2021/12/05 18:40:18;;;;;;;20.77;16.50;;;6.50;99.90;;;;;;5048807;28;20174;-86
2021/12/05 18:42:44;;;;;;;22.60;17.67;;;6.50;99.90;;;;;;5035339;28;20182;-87
2021/12/05 18:45:15;;;;;;;21.33;16.63;;;6.50;99.90;;;;;;5030185;28;20220;-85
2021/12/05 18:47:47;;;;;;;22.60;16.63;;;6.40;99.90;;;;;;5032595;28;20166;-88
2021/12/05 18:50:19;;;;;;;23.00;17.23;;;6.40;99.90;;;;;;5029050;28;20202;-87
2021/12/05 18:52:47;;;;;;;20.67;15.10;;;6.40;99.90;;;;;;5028712;28;20229;-87
2021/12/05 18:55:21;;;;;;;21.23;15.27;;;6.30;99.90;;;;;;5029213;28;20163;-88
2021/12/05 18:57:47;;;;;;;21.67;15.80;;;6.30;99.90;;;;;;5027118;28;20163;-87
2021/12/05 19:00:27;;;;;;;20.30;16.40;;;6.30;99.90;;;;;;5025524;28;20564;-87
2021/12/05 19:05:51;;;;;;;19.53;16.57;;;6.40;99.90;;;;;;5037695;28;20157;-81
2021/12/05 19:08:33;;;;;;;22.70;16.33;;;6.50;99.90;;;;;;5036047;28;20170;-80
2021/12/05 19:14:25;;;;;;;16.83;14.23;;;6.60;99.90;;;;;;5023722;28;20178;-88
2021/12/05 19:17:07;;;;;;;19.27;15.27;;;6.60;99.90;;;;;;5024582;28;20289;-85
2021/12/05 19:19:40;;;;;;;21.17;16.07;;;6.50;99.90;;;;;;5027932;28;20162;-87
2021/12/05 19:22:09;;;;;;;20.03;15.63;;;6.60;99.90;;;;;;5027390;28;20166;-84
2021/12/05 19:24:35;;;;;;;21.47;16.50;;;6.60;99.90;;;;;;5031027;28;20182;-84
2021/12/05 19:27:02;;;;;;;19.20;15.43;;;6.70;99.90;;;;;;5028608;28;20169;-83
2021/12/05 19:29:33;;;;;;;17.53;14.87;;;6.50;99.90;;;;;;5022750;28;20186;-82
2021/12/05 19:32:00;;;;;;;22.50;16.20;;;6.40;99.90;;;;;;5039741;28;20205;-82
2021/12/05 19:34:32;;;;;;;22.57;15.93;;;6.40;99.90;;;;;;5041091;28;20174;-82
2021/12/05 19:37:01;;;;;;;19.13;15.57;;;6.30;99.90;;;;;;5039238;28;20170;-79
2021/12/05 19:39:32;;;;;;;19.57;16.77;;;6.30;99.90;;;;;;5049154;28;20149;-82